createdAt,value
2018-07-01T00:01:09.373Z,16.80
2018-07-01T00:03:38.376Z,16.70
2018-07-01T00:06:07.349Z,16.80
2018-07-01T00:11:04.652Z,16.60
2018-07-01T00:13:33.580Z,16.60
2018-07-01T00:16:02.484Z,16.50
2018-07-01T00:18:31.365Z,16.50
2018-07-01T00:21:00.352Z,16.60
2018-07-01T00:23:29.264Z,16.60
2018-07-01T00:25:58.172Z,16.60
2018-07-01T00:28:27.077Z,16.60
2018-07-01T00:30:56.024Z,16.50
2018-07-01T00:33:24.931Z,16.50
2018-07-01T00:35:53.836Z,16.50
2018-07-01T00:38:22.811Z,16.40
2018-07-01T00:40:51.993Z,16.40
2018-07-01T00:43:20.888Z,16.40
2018-07-01T00:45:49.839Z,16.30
2018-07-01T00:48:18.747Z,16.30
2018-07-01T00:50:47.715Z,16.30
2018-07-01T00:53:16.608Z,16.30
2018-07-01T00:55:45.568Z,16.30
2018-07-01T00:58:14.514Z,16.20
2018-07-01T01:00:43.345Z,16.20
2018-07-01T01:05:40.680Z,16.10
2018-07-01T01:08:09.708Z,16.00
2018-07-01T01:10:38.672Z,16.00
2018-07-01T01:13:07.627Z,16.00
2018-07-01T01:15:36.512Z,15.90
2018-07-01T01:18:05.429Z,15.70
2018-07-01T01:20:34.341Z,15.70
2018-07-01T01:23:03.261Z,15.60
2018-07-01T01:28:00.620Z,15.50
2018-07-01T01:30:29.548Z,15.50
2018-07-01T01:32:58.440Z,15.50
2018-07-01T01:35:27.429Z,15.50
2018-07-01T01:37:56.346Z,15.60
2018-07-01T01:40:28.729Z,15.60
2018-07-01T01:43:03.721Z,15.50
2018-07-01T01:48:11.236Z,15.50
2018-07-01T01:51:14.503Z,15.50
2018-07-01T01:53:48.601Z,15.40
2018-07-01T01:56:27.915Z,15.40
2018-07-01T02:02:39.319Z,15.30
2018-07-01T02:05:43.509Z,15.20
2018-07-01T02:08:24.524Z,15.10
2018-07-01T02:10:53.500Z,15.00
2018-07-01T02:13:22.496Z,14.90
2018-07-01T02:15:56.016Z,14.80
2018-07-01T02:18:25.096Z,14.80
2018-07-01T02:20:53.984Z,14.70
2018-07-01T02:23:28.108Z,14.70
2018-07-01T02:25:57.068Z,14.70
2018-07-01T02:28:26.118Z,14.60
2018-07-01T02:30:54.968Z,14.50
2018-07-01T02:33:23.932Z,14.50
2018-07-01T02:35:52.764Z,14.40
2018-07-01T02:38:21.715Z,14.30
2018-07-01T02:40:50.699Z,14.20
2018-07-01T02:43:19.676Z,14.10
2018-07-01T02:48:17.000Z,14.00
2018-07-01T02:50:45.936Z,13.90
2018-07-01T02:55:43.325Z,13.90
2018-07-01T02:58:12.168Z,13.90
2018-07-01T03:00:41.084Z,13.90
2018-07-01T03:03:10.034Z,13.90
2018-07-01T03:05:38.945Z,13.80
2018-07-01T03:08:08.178Z,13.70
2018-07-01T03:13:05.628Z,13.50
2018-07-01T03:15:34.544Z,13.50
2018-07-01T03:20:31.858Z,13.40
2018-07-01T03:23:00.756Z,13.40
2018-07-01T03:25:29.661Z,13.40
2018-07-01T03:27:58.510Z,13.40
2018-07-01T03:30:27.427Z,13.40
2018-07-01T03:32:56.261Z,13.50
2018-07-01T03:37:53.765Z,13.40
2018-07-01T03:40:22.586Z,13.30
2018-07-01T03:42:51.464Z,13.30
2018-07-01T03:45:20.408Z,13.30
2018-07-01T03:50:17.947Z,13.40
2018-07-01T03:52:46.796Z,13.40
2018-07-01T03:55:15.630Z,13.40
2018-07-01T03:57:44.638Z,13.40
2018-07-01T04:00:13.536Z,13.50
2018-07-01T04:02:42.412Z,13.50
2018-07-01T04:05:11.325Z,13.50
2018-07-01T04:07:40.236Z,13.50
2018-07-01T04:10:09.132Z,13.50
2018-07-01T04:12:37.944Z,13.60
2018-07-01T04:15:06.877Z,13.60
2018-07-01T04:22:32.828Z,13.60
2018-07-01T04:25:01.729Z,13.70
2018-07-01T04:29:59.040Z,13.80
2018-07-01T04:32:27.921Z,13.90
2018-07-01T04:34:56.812Z,14.00
2018-07-01T04:37:25.744Z,14.00
2018-07-01T04:39:54.556Z,14.00
2018-07-01T04:47:20.361Z,13.90
2018-07-01T04:49:49.327Z,14.00
2018-07-01T04:52:18.151Z,14.10
2018-07-01T04:54:47.045Z,14.20
2018-07-01T04:57:15.984Z,14.30
2018-07-01T05:02:13.432Z,14.70
2018-07-01T05:04:42.256Z,14.90
2018-07-01T05:07:11.140Z,15.10
2018-07-01T05:09:40.063Z,15.20
2018-07-01T05:12:08.987Z,15.40
2018-07-01T05:14:37.913Z,15.60
2018-07-01T05:17:06.813Z,15.70
2018-07-01T05:19:35.721Z,16.00
2018-07-01T05:22:04.707Z,16.20
2018-07-01T05:24:33.628Z,16.20
2018-07-01T05:27:02.516Z,16.30
2018-07-01T05:29:31.404Z,16.40
2018-07-01T05:32:00.289Z,16.60
2018-07-01T05:34:29.160Z,16.60
2018-07-01T05:36:58.074Z,16.70
2018-07-01T05:39:26.998Z,16.80
2018-07-01T05:41:55.920Z,16.90
2018-07-01T05:44:24.749Z,16.90
2018-07-01T05:46:53.726Z,16.90
2018-07-01T05:49:22.605Z,16.90
2018-07-01T05:51:51.532Z,16.80
2018-07-01T05:54:20.440Z,16.80
2018-07-01T05:56:49.482Z,16.90
2018-07-01T05:59:18.473Z,17.00
2018-07-01T06:01:47.328Z,17.20
2018-07-01T06:06:44.637Z,17.50
2018-07-01T06:09:14.022Z,17.60
2018-07-01T06:11:43.584Z,17.60
2018-07-01T06:14:12.456Z,17.60
2018-07-01T06:16:41.468Z,17.70
2018-07-01T06:19:10.342Z,17.70
2018-07-01T06:21:39.373Z,17.90
2018-07-01T06:24:08.288Z,18.10
2018-07-01T06:26:37.226Z,18.30
2018-07-01T06:29:06.116Z,18.80
2018-07-01T06:31:35.016Z,19.20
2018-07-01T06:34:03.952Z,19.30
2018-07-01T06:36:32.884Z,19.30
2018-07-01T06:39:01.741Z,19.30
2018-07-01T06:41:30.697Z,19.10
2018-07-01T06:43:59.548Z,18.70
2018-07-01T06:46:28.500Z,18.50
2018-07-01T06:48:57.372Z,18.40
2018-07-01T06:51:26.257Z,18.20
2018-07-01T06:53:55.124Z,18.10
2018-07-01T06:56:23.982Z,18.00
2018-07-01T06:58:52.884Z,18.00
2018-07-01T07:01:21.761Z,18.00
2018-07-01T07:03:50.762Z,18.00
2018-07-01T07:06:19.692Z,18.00
2018-07-01T07:08:48.584Z,18.00
2018-07-01T07:11:17.519Z,18.00
2018-07-01T07:13:46.402Z,18.10
2018-07-01T07:16:15.301Z,18.00
2018-07-01T07:18:44.144Z,18.00
2018-07-01T07:21:13.060Z,18.00
2018-07-01T07:26:10.419Z,18.00
2018-07-01T07:28:39.262Z,18.00
2018-07-01T07:31:08.249Z,18.00
2018-07-01T07:33:37.124Z,18.00
2018-07-01T07:36:06.016Z,18.00
2018-07-01T07:38:34.936Z,18.10
2018-07-01T07:41:03.845Z,18.00
2018-07-01T07:43:32.740Z,18.00
2018-07-01T07:46:01.626Z,18.00
2018-07-01T07:48:30.496Z,18.00
2018-07-01T07:50:59.453Z,18.00
2018-07-01T07:53:28.276Z,18.10
2018-07-01T07:55:57.214Z,18.10
2018-07-01T08:00:54.640Z,18.20
2018-07-01T08:03:23.930Z,18.20
2018-07-01T08:05:52.849Z,18.30
2018-07-01T08:08:21.811Z,18.30
2018-07-01T08:10:50.805Z,18.30
2018-07-01T08:13:19.804Z,18.20
2018-07-01T08:15:48.736Z,18.30
2018-07-01T08:18:17.654Z,18.30
2018-07-01T08:20:46.564Z,18.20
2018-07-01T08:23:15.521Z,18.20
2018-07-01T08:25:44.373Z,18.20
2018-07-01T08:28:13.329Z,18.20
2018-07-01T08:30:42.158Z,18.30
2018-07-01T08:33:11.056Z,18.30
2018-07-01T08:35:39.909Z,18.40
2018-07-01T08:38:08.814Z,18.60
2018-07-01T08:40:37.676Z,18.90
2018-07-01T08:43:06.553Z,19.20
2018-07-01T08:50:32.428Z,19.70
2018-07-01T08:53:01.415Z,19.80
2018-07-01T08:55:30.292Z,19.90
2018-07-01T08:57:59.175Z,19.90
2018-07-01T09:02:56.537Z,19.80
2018-07-01T09:05:25.476Z,19.80
2018-07-01T09:07:54.847Z,19.90
2018-07-01T09:15:21.721Z,20.20
2018-07-01T09:17:50.591Z,20.40
2018-07-01T09:20:19.513Z,20.60
2018-07-01T09:22:48.373Z,20.70
2018-07-01T09:25:17.362Z,20.80
2018-07-01T09:27:46.245Z,20.90
2018-07-01T09:30:15.222Z,21.00
2018-07-01T09:32:44.108Z,21.00
2018-07-01T09:35:13.042Z,21.10
2018-07-01T09:40:10.452Z,21.40
2018-07-01T09:42:39.400Z,21.50
2018-07-01T09:45:08.332Z,21.40
2018-07-01T09:47:37.208Z,21.50
2018-07-01T09:50:06.156Z,21.60
2018-07-01T09:52:35.080Z,21.80
2018-07-01T10:00:00.934Z,22.10
2018-07-01T10:04:58.496Z,22.30
2018-07-01T10:07:27.424Z,22.30
2018-07-01T10:09:56.427Z,22.30
2018-07-01T10:12:25.333Z,22.30
2018-07-01T10:14:54.220Z,22.00
2018-07-01T10:17:23.148Z,21.80
2018-07-01T10:19:52.025Z,21.60
2018-07-01T10:22:20.984Z,21.40
2018-07-01T10:24:49.874Z,21.40
2018-07-01T10:27:18.864Z,21.50
2018-07-01T10:29:47.688Z,21.50
2018-07-01T10:32:16.550Z,21.40
2018-07-01T10:34:45.436Z,21.40
2018-07-01T10:37:14.361Z,21.60
2018-07-01T10:39:43.288Z,21.90
2018-07-01T10:42:12.220Z,22.10
2018-07-01T10:44:41.143Z,22.40
2018-07-01T10:47:10.206Z,22.50
2018-07-01T10:49:39.073Z,22.80
2018-07-01T10:52:07.992Z,23.10
2018-07-01T10:54:36.883Z,23.30
2018-07-01T10:57:05.814Z,23.50
2018-07-01T10:59:34.843Z,23.60
2018-07-01T11:02:03.796Z,23.70
2018-07-01T11:04:32.646Z,23.80
2018-07-01T11:07:01.557Z,23.80
2018-07-01T11:09:30.384Z,23.80
2018-07-01T11:14:27.800Z,24.00
2018-07-01T11:16:56.668Z,24.10
2018-07-01T11:19:25.548Z,24.20
2018-07-01T11:21:54.736Z,24.30
2018-07-01T11:24:23.826Z,24.40
2018-07-01T11:29:21.266Z,24.30
2018-07-01T11:31:50.244Z,24.50
2018-07-01T11:34:19.089Z,24.60
2018-07-01T11:36:47.980Z,24.70
2018-07-01T11:41:45.369Z,25.00
2018-07-01T11:44:20.713Z,25.00
2018-07-01T11:46:49.560Z,25.30
2018-07-01T11:49:18.592Z,25.40
2018-07-01T11:51:47.444Z,25.40
2018-07-01T11:54:16.443Z,25.20
2018-07-01T11:56:45.389Z,25.40
2018-07-01T11:59:14.716Z,25.50
2018-07-01T12:01:43.622Z,25.60
2018-07-01T12:04:12.675Z,25.70
2018-07-01T12:06:41.536Z,25.90
2018-07-01T12:09:10.441Z,26.00
2018-07-01T12:11:39.384Z,26.10
2018-07-01T12:14:08.280Z,25.90
2018-07-01T12:16:37.216Z,25.80
2018-07-01T12:19:06.384Z,25.80
2018-07-01T12:21:35.351Z,26.10
2018-07-01T12:24:04.229Z,26.30
2018-07-01T12:26:33.058Z,26.40
2018-07-01T12:31:30.321Z,26.40
2018-07-01T12:36:27.845Z,26.60
2018-07-01T12:38:56.719Z,26.70
2018-07-01T12:41:25.657Z,26.80
2018-07-01T12:43:54.477Z,27.10
2018-07-01T12:46:23.421Z,27.40
2018-07-01T12:48:52.276Z,27.40
2018-07-01T12:51:21.242Z,27.30
2018-07-01T12:56:18.642Z,27.70
2018-07-01T12:58:47.413Z,27.80
2018-07-01T13:01:16.339Z,27.90
2018-07-01T13:03:46.452Z,28.10
2018-07-01T13:06:15.394Z,28.30
2018-07-01T13:11:12.776Z,27.50
2018-07-01T13:16:10.197Z,27.70
2018-07-01T13:18:39.202Z,27.90
2018-07-01T13:21:08.248Z,28.00
2018-07-01T13:23:37.174Z,28.10
2018-07-01T13:26:06.280Z,28.20
2018-07-01T13:28:35.154Z,28.30
2018-07-01T13:31:04.033Z,28.30
2018-07-01T13:33:32.943Z,28.30
2018-07-01T13:36:01.756Z,28.40
2018-07-01T13:38:36.093Z,28.30
2018-07-01T13:41:06.166Z,28.20
2018-07-01T13:43:35.149Z,28.20
2018-07-01T13:46:04.175Z,28.20
2018-07-01T13:48:33.388Z,28.30
2018-07-01T13:51:02.346Z,28.40
2018-07-01T13:53:31.284Z,28.60
2018-07-01T13:58:28.632Z,28.60
2018-07-01T14:00:57.580Z,28.80
2018-07-01T14:03:26.428Z,28.70
2018-07-01T14:08:23.878Z,28.90
2018-07-01T14:10:52.749Z,28.60
2018-07-01T14:13:21.677Z,28.20
2018-07-01T14:15:50.616Z,28.10
2018-07-01T14:18:19.505Z,28.10
2018-07-01T14:20:48.760Z,28.50
2018-07-01T14:23:17.684Z,28.80
2018-07-01T14:25:46.544Z,28.80
2018-07-01T14:28:15.432Z,28.80
2018-07-01T14:30:44.924Z,27.90
2018-07-01T14:33:13.883Z,28.10
2018-07-01T14:35:42.804Z,28.30
2018-07-01T14:38:11.724Z,28.50
2018-07-01T14:43:09.168Z,28.50
2018-07-01T14:45:38.044Z,28.50
2018-07-01T14:48:06.989Z,28.70
2018-07-01T14:50:35.861Z,28.90
2018-07-01T14:53:04.780Z,28.80
2018-07-01T14:55:33.584Z,28.70
2018-07-01T14:58:02.486Z,28.70
2018-07-01T15:00:31.478Z,28.80
2018-07-01T15:03:00.379Z,28.90
2018-07-01T15:05:29.367Z,28.70
2018-07-01T15:07:59.458Z,28.70
2018-07-01T15:10:28.358Z,28.80
2018-07-01T15:12:57.311Z,28.70
2018-07-01T15:15:26.196Z,28.50
2018-07-01T15:17:55.001Z,28.30
2018-07-01T15:20:23.963Z,28.40
2018-07-01T15:22:52.800Z,28.40
2018-07-01T15:25:21.715Z,28.50
2018-07-01T15:27:50.669Z,28.30
2018-07-01T15:30:19.584Z,27.80
2018-07-01T15:32:48.496Z,27.20
2018-07-01T15:35:18.097Z,27.10
2018-07-01T15:37:46.928Z,27.20
2018-07-01T15:40:15.869Z,27.10
2018-07-01T15:42:45.212Z,26.90
2018-07-01T15:45:14.112Z,26.50
2018-07-01T15:47:43.033Z,26.20
2018-07-01T15:50:11.888Z,26.00
2018-07-01T15:52:40.768Z,25.70
2018-07-01T15:55:09.661Z,25.60
2018-07-01T15:57:38.593Z,25.30
2018-07-01T16:00:08.264Z,25.20
2018-07-01T16:02:37.228Z,25.00
2018-07-01T16:07:34.628Z,24.70
2018-07-01T16:10:03.630Z,24.70
2018-07-01T16:12:32.469Z,24.70
2018-07-01T16:15:01.380Z,24.50
2018-07-01T16:17:30.216Z,24.30
2018-07-01T16:19:59.197Z,24.30
2018-07-01T16:22:28.060Z,24.30
2018-07-01T16:25:02.361Z,24.50
2018-07-01T16:27:35.033Z,24.40
2018-07-01T16:30:05.709Z,24.20
2018-07-01T16:32:35.692Z,23.90
2018-07-01T16:35:05.034Z,23.90
2018-07-01T16:37:35.069Z,23.90
2018-07-01T16:42:32.498Z,23.60
2018-07-01T16:45:01.365Z,23.50
2018-07-01T16:47:30.326Z,23.40
2018-07-01T16:52:27.707Z,23.20
2018-07-01T16:54:56.616Z,23.10
2018-07-01T16:57:26.164Z,23.00
2018-07-01T16:59:54.984Z,22.90
2018-07-01T17:02:23.929Z,22.70
2018-07-01T17:04:52.788Z,22.70
2018-07-01T17:07:21.708Z,22.50
2018-07-01T17:09:50.553Z,22.50
2018-07-01T17:12:19.504Z,22.40
2018-07-01T17:14:48.398Z,22.30
2018-07-01T17:17:17.540Z,22.10
2018-07-01T17:19:46.648Z,22.10
2018-07-01T17:22:15.702Z,22.00
2018-07-01T17:24:44.612Z,21.90
2018-07-01T17:27:13.608Z,21.80
2018-07-01T17:29:42.527Z,21.70
2018-07-01T17:32:16.668Z,21.60
2018-07-01T17:34:45.656Z,21.50
2018-07-01T17:37:14.986Z,21.40
2018-07-01T17:42:13.128Z,21.20
2018-07-01T17:44:42.005Z,21.20
2018-07-01T17:47:11.056Z,21.10
2018-07-01T17:49:39.938Z,21.00
2018-07-01T17:52:08.879Z,20.90
2018-07-01T17:54:37.730Z,20.90
2018-07-01T17:57:06.918Z,20.90
2018-07-01T17:59:35.747Z,20.90
2018-07-01T18:02:04.903Z,20.80
2018-07-01T18:04:34.973Z,20.70
2018-07-01T18:07:03.961Z,20.70
2018-07-01T18:09:32.876Z,20.60
2018-07-01T18:12:01.768Z,20.60
2018-07-01T18:14:30.704Z,20.60
2018-07-01T18:16:59.621Z,20.50
2018-07-01T18:19:28.536Z,20.50
2018-07-01T18:22:21.726Z,20.40
2018-07-01T18:24:48.929Z,20.40
2018-07-01T18:26:57.091Z,20.40
2018-07-01T18:29:26.026Z,20.40
2018-07-01T18:31:55.021Z,20.30
2018-07-01T18:34:25.059Z,20.30
2018-07-01T18:36:54.069Z,20.20
2018-07-01T18:39:22.941Z,20.20
2018-07-01T18:41:53.083Z,20.10
2018-07-01T18:44:22.067Z,20.10
2018-07-01T18:46:51.279Z,20.00
2018-07-01T18:49:20.424Z,20.00
2018-07-01T18:51:50.140Z,19.90
2018-07-01T18:54:19.240Z,19.90
2018-07-01T18:56:48.577Z,19.80
2018-07-01T18:59:17.730Z,19.70
2018-07-01T19:01:46.752Z,19.80
2018-07-01T19:04:15.657Z,19.80
2018-07-01T19:06:44.505Z,19.70
2018-07-01T19:09:14.183Z,19.80
2018-07-01T19:11:43.180Z,19.70
2018-07-01T19:16:40.828Z,19.70
2018-07-01T19:19:09.728Z,19.80
2018-07-01T19:21:38.976Z,19.80
2018-07-01T19:24:07.907Z,19.80
2018-07-01T19:26:36.840Z,19.80
2018-07-01T19:29:05.793Z,19.80
2018-07-01T19:31:34.664Z,19.90
2018-07-01T19:34:03.721Z,19.80
2018-07-01T19:36:32.678Z,19.90
2018-07-01T19:39:01.542Z,19.80
2018-07-01T19:41:30.444Z,19.70
2018-07-01T19:43:59.472Z,19.60
2018-07-01T19:48:56.766Z,19.40
2018-07-01T19:51:25.679Z,19.50
2018-07-01T19:53:54.633Z,19.50
2018-07-01T19:56:24.373Z,19.50
2018-07-01T19:58:53.317Z,19.50
2018-07-01T20:01:22.193Z,19.50
2018-07-01T20:03:51.073Z,19.50
2018-07-01T20:06:20.080Z,19.50
2018-07-01T20:08:49.076Z,19.60
2018-07-01T20:11:18.136Z,19.50
2018-07-01T20:13:47.072Z,19.50
2018-07-01T20:16:17.392Z,19.40
2018-07-01T20:18:48.011Z,19.40
2018-07-01T20:21:16.996Z,19.30
2018-07-01T20:23:45.828Z,19.40
2018-07-01T20:26:14.763Z,19.40
2018-07-01T20:28:43.646Z,19.30
2018-07-01T20:31:12.576Z,19.20
2018-07-01T20:33:41.505Z,19.20
2018-07-01T20:36:10.506Z,19.10
2018-07-01T20:38:39.328Z,19.00
2018-07-01T20:41:08.997Z,18.90
2018-07-01T20:43:38.971Z,18.90
2018-07-01T20:46:07.891Z,18.80
2018-07-01T20:48:36.966Z,18.80
2018-07-01T20:53:34.386Z,18.60
2018-07-01T20:56:03.393Z,18.60
2018-07-01T20:58:32.221Z,18.50
2018-07-01T21:01:01.160Z,18.60
2018-07-01T21:03:30.064Z,18.60
2018-07-01T21:05:58.937Z,18.50
2018-07-01T21:08:28.000Z,18.50
2018-07-01T21:13:25.467Z,18.40
2018-07-01T21:18:23.005Z,18.40
2018-07-01T21:20:52.290Z,18.40
2018-07-01T21:23:21.180Z,18.40
2018-07-01T21:25:51.136Z,18.40
2018-07-01T21:28:20.072Z,18.50
2018-07-01T21:30:49.028Z,18.40
2018-07-01T21:33:17.884Z,18.40
2018-07-01T21:35:46.882Z,18.30
2018-07-01T21:38:15.755Z,18.20
2018-07-01T21:40:44.851Z,18.20
2018-07-01T21:43:15.724Z,18.20
2018-07-01T21:45:45.217Z,18.20
2018-07-01T21:48:14.232Z,18.10
2018-07-01T21:50:44.156Z,18.10
2018-07-01T21:53:13.168Z,18.10
2018-07-01T21:55:42.081Z,18.10
2018-07-01T21:58:11.135Z,18.00
2018-07-01T22:00:40.085Z,18.00
2018-07-01T22:03:09.217Z,18.00
2018-07-01T22:08:07.640Z,18.00
2018-07-01T22:10:47.608Z,18.00
2018-07-01T22:14:31.795Z,17.90
2018-07-01T22:19:29.839Z,17.80
2018-07-01T22:21:59.309Z,17.80
2018-07-01T22:24:30.128Z,17.80
2018-07-01T22:26:59.178Z,17.70
2018-07-01T22:29:28.117Z,17.70
2018-07-01T22:31:57.180Z,17.60
2018-07-01T22:34:26.116Z,17.70
2018-07-01T22:36:55.500Z,17.60
2018-07-01T22:39:25.596Z,17.60
2018-07-01T22:41:55.467Z,17.60
2018-07-01T22:44:24.344Z,17.60
2018-07-01T22:46:53.840Z,17.50
2018-07-01T22:49:22.736Z,17.50
2018-07-01T22:51:54.130Z,17.50
2018-07-01T22:54:23.551Z,17.50
2018-07-01T22:56:53.880Z,17.40
2018-07-01T22:59:22.786Z,17.50
2018-07-01T23:03:05.555Z,17.50
2018-07-01T23:05:34.496Z,17.50
2018-07-01T23:08:04.414Z,17.50
2018-07-01T23:10:34.112Z,17.50
2018-07-01T23:13:03.144Z,17.50
2018-07-01T23:15:32.153Z,17.40
2018-07-01T23:18:01.268Z,17.40
2018-07-01T23:20:30.921Z,17.40
2018-07-01T23:22:59.839Z,17.40
2018-07-01T23:25:28.705Z,17.40
2018-07-01T23:27:58.603Z,17.30
2018-07-01T23:30:27.448Z,17.40
2018-07-01T23:32:56.508Z,17.30
2018-07-01T23:35:25.404Z,17.30
2018-07-01T23:37:54.272Z,17.30
2018-07-01T23:40:23.345Z,17.20
2018-07-01T23:42:52.248Z,17.20
2018-07-01T23:45:21.229Z,17.20
2018-07-01T23:47:50.160Z,17.20
2018-07-01T23:50:19.020Z,17.20
2018-07-01T23:52:47.946Z,17.20
2018-07-01T23:57:45.427Z,17.10
